Libuse, LA (71348)

7:24 AM CDT on August 24, 2016 (GMT -0500)
Cherokee Village | | Change Station
Active Advisory: Flood Warning

Elev 77 ft 31.26 °N, 92.48 °W | Updated 56 seconds ago

Clear
Clear
75.9 °F
Feels Like 75 °F
N
0.0
Wind Variable Wind from South
Gusts 0.0 mph

Today
High -- | Low -- °F
--% Chance of Precip.
Yesterday
High -- | Low -- °F
Precip. -- in
Pressure 30.13 in
Visibility 6.0 miles
Clouds Clear
Heat Index 75 °F
Dew Point 76 °F
Humidity 99%
Rainfall 0.00 in
Snow Depth Not available.
6:41 AM 7:42 PM
Waning Gibbous, 57% visible
METAR KAEX 241153Z 00000KT 6SM BR CLR 24/23 A3012 RMK AO2 SLP202 T02390233 10256 20239 53003
Pressure 30.13 in
Visibility 6.0 miles
Clouds Clear
Heat Index 75 °F
Dew Point 76 °F
Humidity 99%
Rainfall 0.00 in
Snow Depth Not available.
6:41 AM 7:42 PM
Waning Gibbous, 57% visible
METAR KAEX 241153Z 00000KT 6SM BR CLR 24/23 A3012 RMK AO2 SLP202 T02390233 10256 20239 53003

10-Day Weather Forecast

Almanac

Astronomy

Aug. 24, 2016 Rise Set
Actual Time
Civil Twilight
Nautical Twilight
Astronomical Twilight
Moon
Length of Visible Light
Length of Day
Tomorrow will be .
, % of the Moon is Illuminated

Today's Extremes

State Highs State Lows

Community

WunderPhotos

Upload Photos

1,934,579 photos uploaded!

WunderBlog® & News

Nearby

Air Quality

  Air Quality AQ Index Pollutant
Not available.

Snow Depth

Station Depth Elevation

Earthquake Activity

City Distance Mag. Time & Date
Minimum magnitude displayed is 2.5.

Coastal Water Temperatures

Place Temperature

Stations

Nearby Weather Stations

Station Location Temp. Windchill Dew Point Humidity Wind Precip. Elev Updated Type
                   

Watches & Warnings

Flood Warning
Issued: 9:05 PM CDT Aug. 23, 2016 – National Weather Service

The Flood Warning continues for
the Calcasieu River near Glenmora.
* Until further notice... or until the warning is cancelled.
* At 8:45 PM Tuesday the stage was 13.7 feet.
* Minor flooding is occurring and minor flooding is forecast.
* Flood stage is 12.0 feet.
* Forecast... the river will continue at a flat crest near 13.8
feet through Thursday morning, then begin a slow fall.
* Impact... at stages near 14.0 feet... some roads upstream from
Glenmora, including strothers crossing Road near the community of
Calcasieu and Price Crossing Road near Hineston have two to three
feet of water over the Road and are subject to being closed.
Flooding of forested areas near the river will also occur.


Lat... Lon 3113 9279 3090 9269 3090 9262 3105 9265 3115 9275